Edenville, Ohio
Current Conditions -  °F | °C
As of 6:53 AM on Monday 22 Dec 2014 (Local Time) from KMNN Reporting Station
Haze Haze  
Wind Chill: 17°   Ceiling: Unl
Heat Index: 25°   Visibility: 5mi
Dew Point: 20°   Wind: 7mph
Humidity: 81%   Direction: 140°SE
Pressure: 30.07"   Gusts: NA
Location:  40.8054°N, 83.1316°W
Report Text: KMNN 221153Z AUTO 14006KT 5SM HZ CLR M04/M07 A3007 RMK AO2 SLP196 T10391067 11033 21061 55006 TSNO
Loading
Personal Weather Stations






























Interactive Weather Map New forecast layout! Learn more

10-Day Weather Forecast

Advertisements
Track Severe Weather on mobile